首页
METAR-TAF:

METAR-TAF

机场 :

St. Petersburg-Clearwater International Airport

聖彼德斯堡-克利爾沃特, 佛罗里达州, 美国

纬度: 27-54-44N, 经度: 082-41-08W, 海拔: 3米

当前天气观测

该预报发布于54分钟前的16:53 UTC
风速12节,风向西南
温度 33°C
湿度 59%
气压 1014 hPa
能見度: 16.1公里
散云层高于3900英尺

METAR: KPIE 041653Z 22012KT 10SM SCT039 33/24 A2995 RMK AO2 SLP142 T03330239

时间: 13:47 (17:47 UTC)

预报

该预报发布于18分钟前的17:29 UTC
预报有效从04日的 18点(UTC)到 05日的 18点(UTC)
风速12节,风向西南
能見度: 10公里
散云层高于4000英尺, 积雨云.
多云层高于25000英尺
附近有雷暴
从 05日的 0000点(UTC)
风速7节,风向西转西南
能見度: 10公里
散云层高于3000英尺
散云层高于25000英尺
从 05日的 0300点(UTC)
风速5节,风向西南
能見度: 10公里
少量云层高于3000英尺
散云层高于25000英尺
从 05日的 0600点(UTC)
风速5节,风向西南
能見度: 10公里
散云层高于3000英尺
多云层高于20000英尺
附近有阵雨
从 05日的 1200点(UTC)
风速8节,风向西南
能見度: 9.7公里
散云层高于2000英尺
多云层高于4000英尺
阴天层高于20000英尺
阵雨

TAF: KPIE 041729Z 0418/0518 23012KT P6SM VCTS SCT040CB BKN250 FM050000 24007KT P6SM SCT030 SCT250 FM050300 22005KT P6SM FEW030 SCT250 FM050600 23005KT P6SM VCSH SCT030 BKN200 FM051200 23008KT 6SM SHRA SCT020 BKN040 OVC200

超过4000个机场的气象观测和天气预报(METAR&TAF报告)。

可查询的气象台以黄色和红色小点在地图上表示。

将鼠标移到小点上方,可查看气象台名称。

然后点击查看天气观测和预报。

如需切换地图:点击带黑十字的绿色按钮放大地图;点击带横线的绿色按钮缩小地图;或者点击绿色箭头查看邻近地区的地图。


METAR-TAF: